createdAt,value
2023-03-07T00:00:06.193Z,3.50
2023-03-07T00:02:34.377Z,3.50
2023-03-07T00:05:02.918Z,3.50
2023-03-07T00:07:32.138Z,3.60
2023-03-07T00:10:00.460Z,3.60
2023-03-07T00:12:30.048Z,3.60
2023-03-07T00:14:58.200Z,3.60
2023-03-07T00:17:26.523Z,3.70
2023-03-07T00:19:54.920Z,3.70
2023-03-07T00:22:23.174Z,3.70
2023-03-07T00:24:51.490Z,3.70
2023-03-07T00:27:19.797Z,3.70
2023-03-07T00:29:51.169Z,3.80
2023-03-07T00:32:19.680Z,3.80
2023-03-07T00:34:47.976Z,3.80
2023-03-07T00:37:16.343Z,3.80
2023-03-07T00:39:44.831Z,3.80
2023-03-07T00:42:13.092Z,3.80
2023-03-07T00:44:41.459Z,3.80
2023-03-07T00:47:11.062Z,3.90
2023-03-07T00:49:39.996Z,3.90
2023-03-07T00:52:08.616Z,3.90
2023-03-07T00:54:36.849Z,4.00
2023-03-07T00:57:05.622Z,4.00
2023-03-07T00:59:34.573Z,4.00
2023-03-07T01:02:03.303Z,4.00
2023-03-07T01:04:33.080Z,4.00
2023-03-07T01:07:01.373Z,4.00
2023-03-07T01:09:29.908Z,4.10
2023-03-07T01:11:58.367Z,4.20
2023-03-07T01:14:27.249Z,4.20
2023-03-07T01:16:55.677Z,4.20
2023-03-07T01:19:24.379Z,4.30
2023-03-07T01:21:56.653Z,4.30
2023-03-07T01:24:25.292Z,4.30
2023-03-07T01:26:54.035Z,4.40
2023-03-07T01:29:24.683Z,4.40
2023-03-07T01:31:53.435Z,4.40
2023-03-07T01:34:22.050Z,4.40
2023-03-07T01:36:52.801Z,4.40
2023-03-07T01:39:23.170Z,4.40
2023-03-07T01:42:01.547Z,4.40
2023-03-07T01:44:31.177Z,4.40
2023-03-07T01:47:00.795Z,4.50
2023-03-07T01:49:55.882Z,4.50
2023-03-07T01:52:28.044Z,4.50
2023-03-07T01:55:06.103Z,4.60
2023-03-07T01:57:38.155Z,4.50
2023-03-07T02:00:11.327Z,4.40
2023-03-07T02:02:45.004Z,4.50
2023-03-07T02:05:21.584Z,4.50
2023-03-07T02:07:52.811Z,4.50
2023-03-07T02:10:27.098Z,4.60
2023-03-07T02:12:55.873Z,4.50
2023-03-07T02:15:24.882Z,4.60
2023-03-07T02:17:53.665Z,4.60
2023-03-07T02:20:32.667Z,4.60
2023-03-07T02:23:01.198Z,4.60
2023-03-07T02:25:35.893Z,4.60
2023-03-07T02:28:08.375Z,4.60
2023-03-07T02:30:38.647Z,4.60
2023-03-07T02:33:07.054Z,4.70
2023-03-07T02:35:35.375Z,4.70
2023-03-07T02:38:06.475Z,4.70
2023-03-07T02:40:34.893Z,4.70
2023-03-07T02:43:09.591Z,4.70
2023-03-07T02:45:40.319Z,4.60
2023-03-07T02:48:08.796Z,4.70
2023-03-07T02:50:37.638Z,4.70
2023-03-07T02:53:06.232Z,4.70
2023-03-07T02:55:34.790Z,4.60
2023-03-07T02:58:07.029Z,4.70
2023-03-07T03:00:35.593Z,4.70
2023-03-07T03:03:04.003Z,4.70
2023-03-07T03:05:32.278Z,4.70
2023-03-07T03:08:00.664Z,4.60
2023-03-07T03:10:31.456Z,4.60
2023-03-07T03:13:02.292Z,4.70
2023-03-07T03:15:31.865Z,4.70
2023-03-07T03:18:00.222Z,4.60
2023-03-07T03:20:28.732Z,4.60
2023-03-07T03:22:57.865Z,4.70
2023-03-07T03:25:27.214Z,4.70
2023-03-07T03:27:55.514Z,4.70
2023-03-07T03:30:26.668Z,4.70
2023-03-07T03:32:56.897Z,4.70
2023-03-07T03:35:25.172Z,4.70
2023-03-07T03:37:56.777Z,4.70
2023-03-07T03:40:26.310Z,4.70
2023-03-07T03:42:54.835Z,4.70
2023-03-07T03:45:25.941Z,4.80
2023-03-07T03:47:54.260Z,4.80
2023-03-07T03:50:24.263Z,4.80
2023-03-07T03:52:52.935Z,4.80
2023-03-07T03:55:21.218Z,4.70
2023-03-07T03:57:49.561Z,4.70
2023-03-07T04:00:21.154Z,4.80
2023-03-07T04:02:50.188Z,4.70
2023-03-07T04:05:19.733Z,4.70
2023-03-07T04:07:52.056Z,4.70
2023-03-07T04:10:20.815Z,4.80
2023-03-07T04:12:48.987Z,4.70
2023-03-07T04:15:17.569Z,4.80
2023-03-07T04:17:45.779Z,4.70
2023-03-07T04:20:17.740Z,4.70
2023-03-07T04:22:49.371Z,4.70
2023-03-07T04:25:19.673Z,4.60
2023-03-07T04:27:48.645Z,4.60
2023-03-07T04:30:17.764Z,4.60
2023-03-07T04:32:46.101Z,4.50
2023-03-07T04:35:14.449Z,4.50
2023-03-07T04:37:42.766Z,4.50
2023-03-07T04:40:14.192Z,4.60
2023-03-07T04:42:42.448Z,4.50
2023-03-07T04:45:12.858Z,4.40
2023-03-07T04:47:41.561Z,4.50
2023-03-07T04:50:11.632Z,4.50
2023-03-07T04:52:41.799Z,4.40
2023-03-07T04:55:13.165Z,4.40
2023-03-07T04:57:41.734Z,4.30
2023-03-07T05:00:11.221Z,4.30
2023-03-07T05:02:40.442Z,4.30
2023-03-07T05:05:10.019Z,4.30
2023-03-07T05:07:38.398Z,4.30
2023-03-07T05:10:07.824Z,4.30
2023-03-07T05:12:37.738Z,4.30
2023-03-07T05:15:08.320Z,4.30
2023-03-07T05:17:36.665Z,4.30
2023-03-07T05:20:07.005Z,4.40
2023-03-07T05:22:37.256Z,4.30
2023-03-07T05:25:06.283Z,4.30
2023-03-07T05:27:34.810Z,4.30
2023-03-07T05:30:05.805Z,4.30
2023-03-07T05:32:35.013Z,4.30
2023-03-07T05:35:03.429Z,4.40
2023-03-07T05:37:32.753Z,4.40
2023-03-07T05:40:01.196Z,4.40
2023-03-07T05:42:29.550Z,4.30
2023-03-07T05:44:57.897Z,4.40
2023-03-07T05:47:27.823Z,4.30
2023-03-07T05:49:56.192Z,4.30
2023-03-07T05:52:24.444Z,4.40
2023-03-07T05:54:52.997Z,4.40
2023-03-07T05:57:21.726Z,4.40
2023-03-07T05:59:50.207Z,4.40
2023-03-07T06:02:18.713Z,4.50
2023-03-07T06:04:48.332Z,4.50
2023-03-07T06:07:16.698Z,4.50
2023-03-07T06:09:45.317Z,4.50
2023-03-07T06:12:14.332Z,4.40
2023-03-07T06:14:42.779Z,4.50
2023-03-07T06:17:11.440Z,4.50
2023-03-07T06:19:39.697Z,4.50
2023-03-07T06:22:09.845Z,4.60
2023-03-07T06:24:38.253Z,4.60
2023-03-07T06:27:06.945Z,4.50
2023-03-07T06:29:35.716Z,4.50
2023-03-07T06:32:04.549Z,4.50
2023-03-07T06:34:32.886Z,4.60
2023-03-07T06:37:01.424Z,4.60
2023-03-07T06:39:31.624Z,4.60
2023-03-07T06:42:01.790Z,4.60
2023-03-07T06:44:30.165Z,4.60
2023-03-07T06:46:58.419Z,4.60
2023-03-07T06:49:27.002Z,4.60
2023-03-07T06:51:55.362Z,4.50
2023-03-07T06:54:23.684Z,4.60
2023-03-07T06:56:55.142Z,4.50
2023-03-07T06:59:25.092Z,4.50
2023-03-07T07:01:53.702Z,4.60
2023-03-07T07:04:22.730Z,4.60
2023-03-07T07:06:52.433Z,4.70
2023-03-07T07:09:20.725Z,4.60
2023-03-07T07:11:49.893Z,4.60
2023-03-07T07:14:19.472Z,4.60
2023-03-07T07:16:48.050Z,4.70
2023-03-07T07:19:16.376Z,4.60
2023-03-07T07:21:44.697Z,4.60
2023-03-07T07:24:14.399Z,4.60
2023-03-07T07:26:42.683Z,4.70
2023-03-07T07:29:11.204Z,4.70
2023-03-07T07:31:40.915Z,4.70
2023-03-07T07:34:09.513Z,4.60
2023-03-07T07:36:38.327Z,4.70
2023-03-07T07:39:07.942Z,4.60
2023-03-07T07:41:39.092Z,4.60
2023-03-07T07:44:07.420Z,4.60
2023-03-07T07:46:47.156Z,4.60
2023-03-07T07:49:17.685Z,4.70
2023-03-07T07:51:46.813Z,4.70
2023-03-07T07:54:15.351Z,4.60
2023-03-07T07:56:44.344Z,4.60
2023-03-07T07:59:12.683Z,4.60
2023-03-07T08:01:41.108Z,4.70
2023-03-07T08:04:11.253Z,4.70
2023-03-07T08:06:39.816Z,4.60
2023-03-07T08:09:08.497Z,4.70
2023-03-07T08:11:36.768Z,4.60
2023-03-07T08:14:05.406Z,4.60
2023-03-07T08:16:33.701Z,4.60
2023-03-07T08:19:02.055Z,4.60
2023-03-07T08:21:32.225Z,4.70
2023-03-07T08:24:00.970Z,4.80
2023-03-07T08:26:29.267Z,4.60
2023-03-07T08:28:59.446Z,4.40
2023-03-07T08:31:27.819Z,4.30
2023-03-07T08:33:56.207Z,4.30
2023-03-07T08:36:24.521Z,4.30
2023-03-07T08:38:54.638Z,4.20
2023-03-07T08:41:24.047Z,4.20
2023-03-07T08:43:52.711Z,4.20
2023-03-07T08:46:21.155Z,4.10
2023-03-07T08:48:49.558Z,4.10
2023-03-07T08:51:19.339Z,4.10
2023-03-07T08:53:48.020Z,4.10
2023-03-07T08:56:19.458Z,3.90
2023-03-07T08:58:47.939Z,4.00
2023-03-07T09:01:16.253Z,4.00
2023-03-07T09:03:44.764Z,4.10
2023-03-07T09:06:18.054Z,4.20
2023-03-07T09:08:47.300Z,4.20
2023-03-07T09:11:18.043Z,4.00
2023-03-07T09:13:52.658Z,3.90
2023-03-07T09:16:22.178Z,3.60
2023-03-07T09:18:50.900Z,3.60
2023-03-07T09:21:19.226Z,3.40
2023-03-07T09:23:47.518Z,3.40
2023-03-07T09:26:17.602Z,3.30
2023-03-07T09:28:46.085Z,3.20
2023-03-07T09:31:16.317Z,3.00
2023-03-07T09:33:46.669Z,3.00
2023-03-07T09:36:16.329Z,2.90
2023-03-07T09:38:44.762Z,2.80
2023-03-07T09:41:31.368Z,2.90
2023-03-07T09:44:07.559Z,2.90
2023-03-07T09:47:26.420Z,3.00
2023-03-07T09:49:55.533Z,3.00
2023-03-07T09:52:26.854Z,3.10
2023-03-07T09:55:00.049Z,3.00
2023-03-07T09:57:32.888Z,3.00
2023-03-07T10:00:06.224Z,3.00
2023-03-07T10:02:47.743Z,3.10
2023-03-07T10:05:30.490Z,3.10
2023-03-07T10:07:59.197Z,3.10
2023-03-07T10:10:34.663Z,3.30
2023-03-07T10:13:16.898Z,3.40
2023-03-07T10:15:48.812Z,3.30
2023-03-07T10:18:28.502Z,3.20
2023-03-07T10:21:05.779Z,3.10
2023-03-07T10:23:59.400Z,3.20
2023-03-07T10:26:33.874Z,3.10
2023-03-07T10:29:14.635Z,3.00
2023-03-07T10:31:46.654Z,3.10
2023-03-07T10:34:26.654Z,3.10
2023-03-07T10:37:08.771Z,3.10
2023-03-07T10:39:43.578Z,3.10
2023-03-07T10:42:14.002Z,3.10
2023-03-07T10:44:46.071Z,3.10
2023-03-07T10:47:21.066Z,3.20
2023-03-07T10:49:52.443Z,3.30
2023-03-07T10:52:30.418Z,3.20
2023-03-07T10:55:37.828Z,3.10
2023-03-07T10:58:24.224Z,3.10
2023-03-07T11:01:15.886Z,3.40
2023-03-07T11:03:54.764Z,3.10
2023-03-07T11:06:37.119Z,3.40
2023-03-07T11:09:18.136Z,3.30
2023-03-07T11:11:52.721Z,3.20
2023-03-07T11:14:22.528Z,2.90
2023-03-07T11:16:54.253Z,3.00
2023-03-07T11:19:38.241Z,3.10
2023-03-07T11:22:19.536Z,3.20
2023-03-07T11:24:58.693Z,3.10
2023-03-07T11:27:34.973Z,3.10
2023-03-07T11:30:21.962Z,3.10
2023-03-07T11:33:02.815Z,3.00
2023-03-07T11:35:54.265Z,3.10
2023-03-07T11:38:33.116Z,2.90
2023-03-07T11:41:06.561Z,2.90
2023-03-07T11:43:48.298Z,2.80
2023-03-07T11:46:27.773Z,2.80
2023-03-07T11:49:15.269Z,2.80
2023-03-07T11:51:54.953Z,2.90
2023-03-07T11:54:31.409Z,2.70
2023-03-07T11:57:06.225Z,2.90
2023-03-07T12:00:12.746Z,2.80
2023-03-07T12:03:17.485Z,2.80
2023-03-07T12:06:03.174Z,2.90
2023-03-07T12:08:48.602Z,2.90
2023-03-07T12:11:26.587Z,3.00
2023-03-07T12:14:02.894Z,3.00
2023-03-07T12:16:43.229Z,3.10
2023-03-07T12:19:32.421Z,3.10
2023-03-07T12:22:18.689Z,3.10
2023-03-07T12:24:58.780Z,3.20
2023-03-07T12:27:32.167Z,3.10
2023-03-07T12:30:04.749Z,3.20
2023-03-07T12:32:36.674Z,3.20
2023-03-07T12:35:11.918Z,3.20
2023-03-07T12:37:47.579Z,3.00
2023-03-07T12:40:21.752Z,3.20
2023-03-07T12:42:57.244Z,3.20
2023-03-07T12:45:28.026Z,3.30
2023-03-07T12:48:08.933Z,3.30
2023-03-07T12:50:46.354Z,3.50
2023-03-07T12:53:25.696Z,3.50
2023-03-07T12:55:58.602Z,3.60
2023-03-07T12:58:38.365Z,3.60
2023-03-07T13:01:14.473Z,3.70
2023-03-07T13:03:52.090Z,3.80
2023-03-07T13:06:22.760Z,3.70
2023-03-07T13:08:55.396Z,3.60
2023-03-07T13:11:26.168Z,3.70
2023-03-07T13:13:57.068Z,3.60
2023-03-07T13:16:45.200Z,3.60
2023-03-07T13:19:50.067Z,3.70
2023-03-07T13:22:56.087Z,3.80
2023-03-07T13:25:51.686Z,3.80
2023-03-07T13:28:41.063Z,3.80
2023-03-07T13:31:43.779Z,3.70
2023-03-07T13:34:46.987Z,3.80
2023-03-07T13:37:58.435Z,3.70
2023-03-07T13:40:54.134Z,3.80
2023-03-07T13:43:59.938Z,3.80
2023-03-07T13:47:01.302Z,3.80
2023-03-07T13:49:41.240Z,3.70
2023-03-07T13:52:38.989Z,3.90
2023-03-07T13:55:23.996Z,4.00
2023-03-07T13:57:52.568Z,4.00
2023-03-07T14:00:51.776Z,3.80
2023-03-07T14:03:31.028Z,3.80
2023-03-07T14:06:09.601Z,3.90
2023-03-07T14:08:39.282Z,3.80
2023-03-07T14:11:14.684Z,3.80
2023-03-07T14:13:59.145Z,4.00
2023-03-07T14:16:41.909Z,4.10
2023-03-07T14:19:20.761Z,3.90
2023-03-07T14:21:56.435Z,3.90
2023-03-07T14:24:58.511Z,3.90
2023-03-07T14:27:26.885Z,3.90
2023-03-07T14:29:57.104Z,3.80
2023-03-07T14:32:29.492Z,3.90
2023-03-07T14:34:58.826Z,4.00
2023-03-07T14:37:28.856Z,3.90
2023-03-07T14:40:17.300Z,4.10
2023-03-07T14:42:52.021Z,3.80
2023-03-07T14:45:27.410Z,4.00
2023-03-07T14:48:15.593Z,4.00
2023-03-07T14:50:45.060Z,3.90
2023-03-07T14:53:20.416Z,4.00
2023-03-07T14:55:51.975Z,3.80
2023-03-07T14:58:23.673Z,3.90
2023-03-07T15:00:59.894Z,4.00
2023-03-07T15:03:30.563Z,4.10
2023-03-07T15:06:00.276Z,4.10
2023-03-07T15:08:30.775Z,4.10
2023-03-07T15:11:06.566Z,4.20
2023-03-07T15:13:39.472Z,4.10
2023-03-07T15:16:15.086Z,4.10
2023-03-07T15:18:49.707Z,4.00
2023-03-07T15:21:21.787Z,4.00
2023-03-07T15:23:55.158Z,3.90
2023-03-07T15:26:26.627Z,4.00
2023-03-07T15:29:00.762Z,4.00
2023-03-07T15:31:32.799Z,3.90
2023-03-07T15:34:21.220Z,4.00
2023-03-07T15:36:49.670Z,4.00
2023-03-07T15:39:34.302Z,3.90
2023-03-07T15:42:06.000Z,3.80
2023-03-07T15:44:36.311Z,3.80
2023-03-07T15:47:13.573Z,3.80
2023-03-07T15:49:45.151Z,3.70
2023-03-07T15:52:23.906Z,3.80
2023-03-07T15:54:54.418Z,3.70
2023-03-07T15:57:24.739Z,3.70
2023-03-07T15:59:58.007Z,3.80
2023-03-07T16:02:50.600Z,3.80
2023-03-07T16:05:41.063Z,3.70
2023-03-07T16:08:13.710Z,3.70
2023-03-07T16:10:47.214Z,3.80
2023-03-07T16:13:18.275Z,3.80
2023-03-07T16:15:46.628Z,3.80
2023-03-07T16:18:22.903Z,3.70
2023-03-07T16:20:52.600Z,3.70
2023-03-07T16:23:20.967Z,3.70
2023-03-07T16:25:49.464Z,3.70
2023-03-07T16:28:17.973Z,3.50
2023-03-07T16:30:47.263Z,3.50
2023-03-07T16:33:16.677Z,3.50
2023-03-07T16:35:45.427Z,3.60
2023-03-07T16:38:15.046Z,3.40
2023-03-07T16:40:45.496Z,3.30
2023-03-07T16:43:32.368Z,3.20
2023-03-07T16:46:04.318Z,2.90
2023-03-07T16:48:32.698Z,2.80
2023-03-07T16:51:01.105Z,2.80
2023-03-07T16:53:31.417Z,2.70
2023-03-07T16:56:00.512Z,2.50
2023-03-07T16:58:33.636Z,2.60
2023-03-07T17:01:02.313Z,2.60
2023-03-07T17:03:30.911Z,2.60
2023-03-07T17:06:00.430Z,2.70
2023-03-07T17:08:28.594Z,2.80
2023-03-07T17:10:58.613Z,2.60
2023-03-07T17:13:27.014Z,2.60
2023-03-07T17:15:55.510Z,2.70
2023-03-07T17:18:24.877Z,2.80
2023-03-07T17:20:53.317Z,2.80
2023-03-07T17:23:22.316Z,2.70
2023-03-07T17:25:50.667Z,2.60
2023-03-07T17:28:20.663Z,2.60
2023-03-07T17:30:50.039Z,2.70
2023-03-07T17:33:19.655Z,2.50
2023-03-07T17:35:48.142Z,2.60
2023-03-07T17:38:16.689Z,2.60
2023-03-07T17:40:45.259Z,2.70
2023-03-07T17:43:14.286Z,2.70
2023-03-07T17:45:43.943Z,2.60
2023-03-07T17:48:12.303Z,2.60
2023-03-07T17:50:42.050Z,2.60
2023-03-07T17:53:10.494Z,2.60
2023-03-07T17:55:39.212Z,2.70
2023-03-07T17:58:09.431Z,2.60
2023-03-07T18:00:38.608Z,2.60
2023-03-07T18:03:08.428Z,2.70
2023-03-07T18:05:36.923Z,2.60
2023-03-07T18:08:05.669Z,2.60
2023-03-07T18:10:33.884Z,2.60
2023-03-07T18:13:02.281Z,2.60
2023-03-07T18:15:30.483Z,2.50
2023-03-07T18:17:59.903Z,2.60
2023-03-07T18:20:29.910Z,2.60
2023-03-07T18:22:58.208Z,2.60
2023-03-07T18:25:26.558Z,2.70
2023-03-07T18:27:54.936Z,2.70
2023-03-07T18:30:23.790Z,2.60
2023-03-07T18:32:55.396Z,2.60
2023-03-07T18:35:24.618Z,2.60
2023-03-07T18:37:54.319Z,2.60
2023-03-07T18:40:25.138Z,2.60
2023-03-07T18:42:55.695Z,2.60
2023-03-07T18:45:24.102Z,2.60
2023-03-07T18:47:52.717Z,2.60
2023-03-07T18:50:21.014Z,2.60
2023-03-07T18:52:49.974Z,2.60
2023-03-07T18:55:20.136Z,2.60
2023-03-07T18:57:48.414Z,2.60
2023-03-07T19:00:17.379Z,2.50
2023-03-07T19:02:45.975Z,2.50
2023-03-07T19:05:14.485Z,2.60
2023-03-07T19:07:44.651Z,2.50
2023-03-07T19:10:13.503Z,2.60
2023-03-07T19:12:43.127Z,2.60
2023-03-07T19:15:12.499Z,2.60
2023-03-07T19:17:41.827Z,2.60
2023-03-07T19:20:11.463Z,2.60
2023-03-07T19:22:39.954Z,2.70
2023-03-07T19:25:09.999Z,2.70
2023-03-07T19:27:38.370Z,2.60
2023-03-07T19:30:11.268Z,2.60
2023-03-07T19:32:40.226Z,2.60
2023-03-07T19:35:09.482Z,2.50
2023-03-07T19:37:37.968Z,2.50
2023-03-07T19:40:08.059Z,2.50
2023-03-07T19:42:36.719Z,2.60
2023-03-07T19:45:08.301Z,2.60
2023-03-07T19:47:36.765Z,2.50
2023-03-07T19:50:05.572Z,2.50
2023-03-07T19:52:33.852Z,2.50
2023-03-07T19:55:02.348Z,2.50
2023-03-07T19:57:30.681Z,2.60
2023-03-07T19:59:59.192Z,2.60
2023-03-07T20:02:29.666Z,2.50
2023-03-07T20:04:58.893Z,2.50
2023-03-07T20:07:28.301Z,2.50
2023-03-07T20:09:57.006Z,2.50
2023-03-07T20:12:25.335Z,2.60
2023-03-07T20:14:53.927Z,2.70
2023-03-07T20:17:22.856Z,2.60
2023-03-07T20:19:53.226Z,2.60
2023-03-07T20:22:23.466Z,2.60
2023-03-07T20:24:53.118Z,2.70
2023-03-07T20:27:23.571Z,2.60
2023-03-07T20:29:52.815Z,2.60
2023-03-07T20:32:21.369Z,2.50
2023-03-07T20:34:53.982Z,2.60
2023-03-07T20:37:22.387Z,2.60
2023-03-07T20:39:50.827Z,2.60
2023-03-07T20:42:19.197Z,2.50
2023-03-07T20:44:47.639Z,2.60
2023-03-07T20:47:15.906Z,2.80
2023-03-07T20:49:44.142Z,2.80
2023-03-07T20:52:14.504Z,2.80
2023-03-07T20:54:44.316Z,2.80
2023-03-07T20:57:12.712Z,2.80
2023-03-07T20:59:41.157Z,2.80
2023-03-07T21:02:10.904Z,2.80
2023-03-07T21:04:39.186Z,2.80
2023-03-07T21:07:07.522Z,2.80
2023-03-07T21:09:37.254Z,2.70
2023-03-07T21:12:08.547Z,2.70
2023-03-07T21:14:36.828Z,2.60
2023-03-07T21:17:05.075Z,2.60
2023-03-07T21:19:33.450Z,2.70
2023-03-07T21:22:02.492Z,2.70
2023-03-07T21:24:30.676Z,2.70
2023-03-07T21:27:00.433Z,2.70
2023-03-07T21:29:28.771Z,2.60
2023-03-07T21:31:57.111Z,2.60
2023-03-07T21:34:25.959Z,2.70
2023-03-07T21:36:56.435Z,2.60
2023-03-07T21:39:25.484Z,2.70
2023-03-07T21:41:53.949Z,2.60
2023-03-07T21:44:23.692Z,2.70
2023-03-07T21:46:51.915Z,2.60
2023-03-07T21:49:20.215Z,2.60
2023-03-07T21:51:48.441Z,2.70
2023-03-07T21:54:16.692Z,2.70
2023-03-07T21:56:44.962Z,2.60
2023-03-07T21:59:13.154Z,2.60
2023-03-07T22:01:42.708Z,2.50
2023-03-07T22:04:10.930Z,2.50
2023-03-07T22:06:39.136Z,2.50
2023-03-07T22:09:07.394Z,2.50
2023-03-07T22:11:35.578Z,2.40
2023-03-07T22:14:04.315Z,2.40
2023-03-07T22:16:32.726Z,2.40
2023-03-07T22:19:02.270Z,2.40
2023-03-07T22:21:30.615Z,2.40
2023-03-07T22:24:00.841Z,2.30
2023-03-07T22:26:30.489Z,2.40
2023-03-07T22:28:59.497Z,2.40
2023-03-07T22:31:27.831Z,2.40
2023-03-07T22:33:56.530Z,2.40
2023-03-07T22:36:26.266Z,2.40
2023-03-07T22:38:55.289Z,2.30
2023-03-07T22:41:24.477Z,2.40
2023-03-07T22:43:53.198Z,2.40
2023-03-07T22:46:21.672Z,2.40
2023-03-07T22:48:53.460Z,2.40
2023-03-07T22:51:22.285Z,2.50
2023-03-07T22:53:51.907Z,2.50
2023-03-07T22:56:22.219Z,2.40
2023-03-07T22:58:51.167Z,2.30
2023-03-07T23:01:21.482Z,2.40
2023-03-07T23:03:50.336Z,2.40
2023-03-07T23:06:19.292Z,2.40
2023-03-07T23:08:49.458Z,2.40
2023-03-07T23:11:20.496Z,2.40
2023-03-07T23:13:49.226Z,2.50
2023-03-07T23:16:19.566Z,2.40
2023-03-07T23:18:50.597Z,2.40
2023-03-07T23:21:21.126Z,2.40
2023-03-07T23:23:50.094Z,2.40
2023-03-07T23:26:22.431Z,2.50
2023-03-07T23:28:50.803Z,2.50
2023-03-07T23:31:20.653Z,2.50
2023-03-07T23:33:49.831Z,2.50
2023-03-07T23:36:18.470Z,2.50
2023-03-07T23:38:47.002Z,2.50
2023-03-07T23:41:15.616Z,2.50
2023-03-07T23:43:46.375Z,2.50
2023-03-07T23:46:14.666Z,2.40
2023-03-07T23:48:43.011Z,2.40
2023-03-07T23:51:11.308Z,2.40
2023-03-07T23:53:39.610Z,2.40
2023-03-07T23:56:09.279Z,2.40
2023-03-07T23:58:37.792Z,2.40
